Time;durP1;ratioP1;P1;durP2;ratioP2;P2;SDS_P1;SDS_P2;PMS_P1;PMS_P2;Temp;Humidity;BMP_temperature;BMP_pressure;BME280_temperature;BME280_humidity;BME280_pressure;Samples;Min_cycle;Max_cycle;Signal;HPM_P1;HPM_P2
2022/10/22 00:00:07;;;;;;;100.55;91.63;;;;;;;7.46;84.06;100064.34;1803173;78;25277;-70
2022/10/22 00:02:36;;;;;;;99.37;90.90;;;;;;;7.46;84.09;100067.03;1808894;78;25695;-70
2022/10/22 00:05:05;;;;;;;35.08;20.48;;;;;;;7.46;84.17;100062.20;1792831;79;25402;-70
2022/10/22 00:07:33;;;;;;;97.72;89.58;;;;;;;7.46;84.39;100062.20;1799558;78;25650;-70
2022/10/22 00:10:01;;;;;;;98.90;89.95;;;;;;;7.47;84.51;100059.22;1809757;78;25662;-70
2022/10/22 00:12:28;;;;;;;99.55;90.85;;;;;;;7.46;84.71;100054.92;1802316;78;25528;-70
2022/10/22 00:14:56;;;;;;;99.07;90.38;;;;;;;7.46;84.84;100048.19;1788307;79;27183;-70
2022/10/22 00:17:23;;;;;;;97.70;89.13;;;;;;;7.46;84.93;100040.12;1800198;78;25479;-70
2022/10/22 00:19:51;;;;;;;46.63;41.53;;;;;;;7.48;85.04;100044.66;1805504;77;25351;-70
2022/10/22 00:22:18;;;;;;;36.48;28.23;;;;;;;7.50;85.15;100046.27;1806113;78;25608;-70
2022/10/22 00:24:45;;;;;;;36.80;18.87;;;;;;;7.50;85.36;100051.64;1806584;78;25611;-70
2022/10/22 00:27:13;;;;;;;35.30;18.52;;;;;;;7.50;85.46;100046.27;1804960;78;27971;-70
2022/10/22 00:29:41;;;;;;;36.35;18.77;;;;;;;7.49;85.59;100041.41;1802405;78;25552;-70
2022/10/22 00:32:08;;;;;;;32.88;19.90;;;;;;;7.50;85.76;100038.98;1805012;78;25370;-70
2022/10/22 00:34:35;;;;;;;35.05;19.60;;;;;;;7.52;85.89;100034.65;1805215;78;25577;-70
2022/10/22 00:37:03;;;;;;;37.50;22.87;;;;;;;7.53;85.86;100037.61;1807639;78;25655;-70
2022/10/22 00:39:30;;;;;;;37.80;20.10;;;;;;;7.53;86.18;100031.67;1807851;78;27226;-70
2022/10/22 00:41:58;;;;;;;36.90;22.48;;;;;;;7.54;86.44;100035.14;1808438;78;25322;-70
2022/10/22 00:45:04;;;;;;;45.65;32.53;;;;;;;7.54;86.44;100033.80;1796671;79;25551;-70
2022/10/22 00:47:40;;;;;;;100.15;91.55;;;;;;;7.55;86.53;100028.69;1806545;78;26539;-69
2022/10/22 00:50:18;;;;;;;98.60;90.15;;;;;;;7.57;86.70;100018.41;1791188;79;25298;-70
2022/10/22 00:52:48;;;;;;;101.00;92.17;;;;;;;7.57;87.01;100014.38;1792348;79;27252;-70
2022/10/22 00:55:17;;;;;;;103.55;94.70;;;;;;;7.58;87.07;100007.91;1811848;78;25472;-70
2022/10/22 00:57:46;;;;;;;102.55;93.80;;;;;;;7.58;87.22;100004.66;1807897;78;25500;-71
2022/10/22 01:00:14;;;;;;;96.53;88.45;;;;;;;7.58;87.10;99995.24;1810727;78;25621;-70
2022/10/22 01:02:42;;;;;;;102.92;94.00;;;;;;;7.60;87.32;99998.98;1814161;78;25546;-70
2022/10/22 01:05:10;;;;;;;99.70;91.05;;;;;;;7.61;87.41;99996.00;1808729;78;27190;-70
2022/10/22 01:07:43;;;;;;;39.20;20.15;;;;;;;7.62;87.67;99992.20;1809981;78;25520;-70
2022/10/22 01:10:15;;;;;;;35.65;20.00;;;;;;;7.63;87.54;99994.36;1809043;78;25504;-70
2022/10/22 01:13:23;;;;;;;93.12;84.40;;;;;;;7.65;87.55;99986.78;1797262;79;25643;-69
2022/10/22 01:16:11;;;;;;;34.73;21.65;;;;;;;7.65;87.95;99982.19;1811872;78;25487;-69
2022/10/22 01:18:56;;;;;;;41.55;20.90;;;;;;;7.66;87.95;99985.67;1809277;78;27194;-69
2022/10/22 01:21:34;;;;;;;34.88;21.05;;;;;;;7.69;87.90;99995.85;1798775;78;25635;-69
2022/10/22 01:24:40;;;;;;;36.95;22.00;;;;;;;7.71;88.16;99994.22;1793369;79;25461;-70
2022/10/22 01:27:40;;;;;;;39.05;20.05;;;;;;;7.71;88.02;99986.92;1801170;78;26344;-70
2022/10/22 01:30:11;;;;;;;37.05;21.33;;;;;;;7.73;88.37;99982.06;1699835;83;25534;-69
2022/10/22 01:32:44;;;;;;;39.83;23.50;;;;;;;7.74;88.41;99982.30;1696389;84;28639;-69
2022/10/22 01:35:17;;;;;;;67.20;60.67;;;;;;;7.75;88.56;99988.50;1703592;84;25445;-69
2022/10/22 01:37:55;;;;;;;105.43;96.45;;;;;;;7.75;88.51;99987.95;1683869;85;25702;-69
2022/10/22 01:40:23;;;;;;;101.95;93.17;;;;;;;7.76;88.76;99980.10;1701716;82;25722;-69
2022/10/22 01:43:03;;;;;;;95.07;86.35;;;;;;;7.77;88.65;99972.28;1703505;84;25598;-69
2022/10/22 01:45:47;;;;;;;39.88;22.98;;;;;;;7.79;88.88;99969.30;1685132;85;27981;-69
2022/10/22 01:48:45;;;;;;;41.45;24.02;;;;;;;7.82;88.70;99972.75;1703564;84;25572;-70
2022/10/22 01:51:39;;;;;;;41.00;23.65;;;;;;;7.83;88.67;99971.11;1694890;84;25659;-70
2022/10/22 01:54:22;;;;;;;37.50;23.20;;;;;;;7.83;88.94;99968.41;1699589;82;25612;-69
2022/10/22 01:57:29;;;;;;;40.65;22.93;;;;;;;7.84;88.95;99967.86;1698453;84;25517;-69
2022/10/22 02:00:10;;;;;;;40.03;23.90;;;;;;;7.86;89.07;99977.78;1702860;84;27298;-70
2022/10/22 02:02:52;;;;;;;43.83;23.95;;;;;;;7.86;89.04;99979.91;1701339;84;25697;-70
2022/10/22 02:05:28;;;;;;;38.40;23.83;;;;;;;7.84;89.34;99974.03;1703122;84;25643;-70
2022/10/22 02:08:05;;;;;;;43.73;24.67;;;;;;;7.86;89.25;99977.22;1766476;80;25606;-70
2022/10/22 02:10:39;;;;;;;40.58;24.15;;;;;;;7.87;89.39;99980.73;1799134;79;25558;-70
2022/10/22 02:13:20;;;;;;;42.88;23.62;;;;;;;7.87;89.49;99976.69;1797071;77;27162;-71
2022/10/22 02:15:51;;;;;;;40.35;22.98;;;;;;;7.87;89.51;99972.66;1801855;79;25608;-69
2022/10/22 02:18:23;;;;;;;41.48;23.45;;;;;;;7.89;89.51;99972.36;1791935;79;25512;-69
2022/10/22 02:20:50;;;;;;;42.25;24.63;;;;;;;7.88;89.78;99959.98;1813612;78;25952;-69
2022/10/22 02:23:20;;;;;;;45.58;25.40;;;;;;;7.88;89.96;99955.94;1798591;79;25508;-69
2022/10/22 02:25:50;;;;;;;;;;;;;;;7.88;89.86;99957.28;1807853;78;27198;-70
2022/10/22 02:28:47;;;;;;;32.70;20.97;;;;;;;7.90;89.97;99961.29;1810402;78;25629;-70
2022/10/22 02:31:19;;;;;;;37.05;22.17;;;;;;;7.90;90.07;99969.37;1810505;78;25506;-69
2022/10/22 02:33:51;;;;;;;47.20;25.32;;;;;;;7.90;90.37;99960.47;1810084;78;25739;-69
2022/10/22 02:36:20;;;;;;;39.88;23.67;;;;;;;7.89;90.38;99959.68;1810946;78;25519;-69
2022/10/22 02:38:50;;;;;;;41.25;23.90;;;;;;;7.90;90.58;99963.98;1812569;78;27846;-69
2022/10/22 02:41:19;;;;;;;44.30;24.12;;;;;;;7.90;90.81;99967.20;1812139;78;25764;-69
2022/10/22 02:43:56;;;;;;;44.27;25.65;;;;;;;7.89;90.94;99965.06;1798447;79;25594;-70
2022/10/22 02:46:25;;;;;;;42.48;25.60;;;;;;;7.89;90.78;99954.30;1813804;78;25651;-70
2022/10/22 02:48:52;;;;;;;45.63;27.30;;;;;;;7.90;90.98;99953.73;1812891;78;25487;-70
2022/10/22 02:51:20;;;;;;;44.05;26.17;;;;;;;7.89;91.07;99954.86;1795589;79;27117;-70
2022/10/22 02:53:47;;;;;;;49.42;27.32;;;;;;;7.90;91.39;99955.08;1807205;78;25588;-70
2022/10/22 02:56:15;;;;;;;40.00;25.32;;;;;;;7.89;91.60;99961.03;1810143;78;25287;-70
2022/10/22 02:58:42;;;;;;;48.05;28.55;;;;;;;7.89;91.42;99958.89;1813738;78;25672;-70
2022/10/22 03:01:09;;;;;;;45.30;28.62;;;;;;;7.89;91.69;99955.64;1812046;78;25530;-70
2022/10/22 03:03:36;;;;;;;107.40;97.45;;;;;;;7.89;91.63;99948.91;1793953;79;27874;-70
2022/10/22 03:06:04;;;;;;;106.37;96.97;;;;;;;7.90;91.79;99949.70;1805670;78;25430;-70
2022/10/22 03:08:31;;;;;;;71.12;63.85;;;;;;;7.90;91.85;99951.86;1809577;78;25602;-69
2022/10/22 03:10:58;;;;;;;46.85;28.32;;;;;;;7.92;92.02;99951.56;1796049;79;26254;-69
2022/10/22 03:13:25;;;;;;;51.40;26.90;;;;;;;7.93;92.35;99949.11;1809331;78;25583;-69
2022/10/22 03:15:52;;;;;;;46.55;24.65;;;;;;;7.93;92.20;99959.32;1796229;79;27254;-69
2022/10/22 03:18:20;;;;;;;46.10;25.72;;;;;;;7.94;92.15;99957.45;1809937;78;25548;-69
2022/10/22 03:20:47;;;;;;;43.42;26.20;;;;;;;7.94;92.45;99956.89;1809026;78;25291;-69
2022/10/22 03:23:18;;;;;;;46.05;24.52;;;;;;;7.95;92.61;99947.72;1809891;78;25646;-69
2022/10/22 03:25:47;;;;;;;45.73;31.85;;;;;;;7.96;92.50;99950.65;1803451;78;25477;-69
2022/10/22 03:28:16;;;;;;;95.47;86.92;;;;;;;7.97;92.65;99944.73;1799534;78;27149;-69
2022/10/22 03:30:43;;;;;;;106.30;97.15;;;;;;;7.98;92.65;99949.00;1801118;79;25726;-69
2022/10/22 03:33:10;;;;;;;102.60;93.62;;;;;;;7.98;92.73;99944.41;1799026;79;25495;-69
2022/10/22 03:35:42;;;;;;;103.42;94.32;;;;;;;7.99;92.92;99949.27;1810465;78;25627;-69
2022/10/22 03:38:10;;;;;;;104.87;95.95;;;;;;;7.98;92.95;99948.45;1802457;78;25598;-69
2022/10/22 03:40:38;;;;;;;100.60;91.95;;;;;;;7.99;92.89;99947.36;1802402;78;27860;-69
2022/10/22 03:43:05;;;;;;;103.35;94.13;;;;;;;8.00;93.32;99943.58;1809613;78;25350;-69
2022/10/22 03:45:33;;;;;;;103.62;94.62;;;;;;;8.00;93.16;99946.27;1797378;79;25463;-69
2022/10/22 03:48:01;;;;;;;98.40;90.30;;;;;;;7.99;93.30;99947.36;1806051;78;25954;-69
2022/10/22 03:50:28;;;;;;;104.07;94.58;;;;;;;7.99;93.78;99951.41;1810749;78;25311;-69
2022/10/22 03:52:57;;;;;;;103.27;94.65;;;;;;;7.99;93.88;99957.34;1782642;78;27154;-69
2022/10/22 03:55:24;;;;;;;101.42;92.57;;;;;;;7.98;93.88;99958.43;1812333;78;25523;-69
2022/10/22 03:57:52;;;;;;;107.47;98.03;;;;;;;7.99;93.84;99960.83;1809340;78;25296;-69
2022/10/22 04:00:19;;;;;;;102.67;93.55;;;;;;;8.00;93.81;99969.70;1799442;78;25616;-69
2022/10/22 04:02:46;;;;;;;102.72;93.65;;;;;;;7.99;93.81;99962.17;1815148;78;25486;-69
2022/10/22 04:05:13;;;;;;;40.67;24.10;;;;;;;8.02;94.14;99959.45;1791912;78;27205;-69
2022/10/22 04:07:41;;;;;;;41.18;25.20;;;;;;;8.03;94.15;99959.12;1792847;78;25477;-69
2022/10/22 04:10:08;;;;;;;45.12;25.92;;;;;;;8.04;94.25;99945.13;1793084;78;25614;-69
2022/10/22 04:12:36;;;;;;;42.33;22.60;;;;;;;8.04;94.19;99947.26;1806384;78;25575;-69
2022/10/22 04:15:05;;;;;;;42.50;23.27;;;;;;;8.05;94.16;99945.36;1799025;78;25338;-69
2022/10/22 04:17:36;;;;;;;44.20;24.92;;;;;;;8.07;94.31;99952.61;1808586;78;27260;-69
2022/10/22 04:20:05;;;;;;;38.28;23.52;;;;;;;8.09;94.28;99961.19;1797872;78;25596;-68
2022/10/22 04:22:35;;;;;;;40.48;24.75;;;;;;;8.10;94.54;99961.41;1792908;78;25474;-68
2022/10/22 04:25:04;;;;;;;37.17;20.37;;;;;;;8.13;94.52;99951.95;1792819;78;25640;-69
2022/10/22 04:27:33;;;;;;;39.50;22.93;;;;;;;8.12;94.47;99940.91;1791980;78;25339;-70
2022/10/22 04:30:02;;;;;;;38.55;22.02;;;;;;;8.13;94.60;99936.58;1812251;78;29519;-69
2022/10/22 04:32:30;;;;;;;41.03;26.03;;;;;;;8.14;94.87;99940.87;1793210;78;25283;-69
2022/10/22 04:34:57;;;;;;;97.55;89.07;;;;;;;8.14;94.62;99926.59;1797621;78;25515;-70
2022/10/22 04:37:25;;;;;;;100.50;91.92;;;;;;;8.16;94.68;99917.12;1793082;78;25664;-71
2022/10/22 04:39:52;;;;;;;100.90;92.17;;;;;;;8.18;94.67;99916.82;1792992;78;25306;-70
2022/10/22 04:42:19;;;;;;;100.95;92.12;;;;;;;8.20;94.78;99906.53;1792803;78;27147;-70
2022/10/22 04:44:47;;;;;;;100.22;91.50;;;;;;;8.20;94.94;99916.75;1793156;78;25457;-70
2022/10/22 04:47:14;;;;;;;102.58;93.78;;;;;;;8.20;95.07;99919.45;1793120;78;25272;-70
2022/10/22 04:49:41;;;;;;;89.85;81.55;;;;;;;8.21;94.97;99908.93;1793007;78;26110;-70
2022/10/22 04:52:08;;;;;;;38.20;22.05;;;;;;;8.24;95.10;99907.55;1798934;78;25521;-70
2022/10/22 04:54:35;;;;;;;41.85;22.05;;;;;;;8.25;95.03;99906.42;1798649;78;27236;-70
2022/10/22 04:57:03;;;;;;;39.55;22.42;;;;;;;8.27;95.12;99908.81;1799378;78;25440;-70
2022/10/22 04:59:30;;;;;;;41.23;20.90;;;;;;;8.27;95.15;99908.27;1790512;78;25693;-70
2022/10/22 05:01:58;;;;;;;37.50;20.55;;;;;;;8.27;95.31;99904.22;1790549;78;26167;-70
2022/10/22 05:04:25;;;;;;;40.65;22.42;;;;;;;8.28;95.30;99910.42;1790499;78;25565;-70
2022/10/22 05:06:53;;;;;;;41.53;21.50;;;;;;;8.29;95.34;99910.13;1796838;78;27209;-70
2022/10/22 05:09:21;;;;;;;38.28;20.43;;;;;;;8.31;95.43;99907.10;1811032;78;25525;-70
2022/10/22 05:11:51;;;;;;;39.45;22.25;;;;;;;8.31;95.49;99899.02;1791948;78;25564;-68
2022/10/22 05:14:23;;;;;;;32.95;20.57;;;;;;;8.32;95.45;99908.15;1790489;78;25604;-70
2022/10/22 05:16:51;;;;;;;43.00;24.37;;;;;;;8.34;95.52;99911.36;1790890;78;25502;-68
2022/10/22 05:19:28;;;;;;;35.78;21.42;;;;;;;8.36;95.68;99909.69;1790454;78;27243;-70
2022/10/22 05:22:00;;;;;;;37.67;22.32;;;;;;;8.37;95.70;99907.25;1795069;78;25457;-68
2022/10/22 05:24:29;;;;;;;38.63;21.12;;;;;;;8.38;95.61;99907.51;1790512;78;25509;-69
2022/10/22 05:26:58;;;;;;;40.28;23.80;;;;;;;8.40;95.67;99909.34;1785490;78;26157;-69
2022/10/22 05:29:27;;;;;;;40.88;24.52;;;;;;;8.41;95.71;99914.44;1795561;78;33522;-69
2022/10/22 05:31:55;;;;;;;56.92;51.33;;;;;;;8.43;95.70;99920.08;1802559;78;27226;-69
2022/10/22 05:34:23;;;;;;;67.97;61.42;;;;;;;8.42;95.77;99917.92;1809307;78;25454;-69
2022/10/22 05:36:54;;;;;;;39.55;24.50;;;;;;;8.45;95.78;99929.48;1790539;78;25351;-69
2022/10/22 05:39:21;;;;;;;68.40;60.92;;;;;;;8.45;96.01;99925.43;1810844;78;25639;-69
2022/10/22 05:41:48;;;;;;;104.03;94.92;;;;;;;8.46;95.97;99932.40;1790520;78;25442;-69
2022/10/22 05:44:15;;;;;;;105.15;95.35;;;;;;;8.45;95.96;99932.17;1809353;78;27295;-68
2022/10/22 05:46:43;;;;;;;102.32;92.92;;;;;;;8.48;95.99;99932.09;1794761;78;25595;-68
2022/10/22 05:49:14;;;;;;;42.53;24.12;;;;;;;8.49;96.19;99941.23;1804359;78;25441;-68
2022/10/22 05:51:41;;;;;;;52.93;24.87;;;;;;;8.50;96.15;99942.05;1798889;78;25617;-68
2022/10/22 05:54:12;;;;;;;43.70;24.05;;;;;;;8.50;96.17;99932.05;1796183;78;25391;-68
2022/10/22 05:56:40;;;;;;;40.50;23.87;;;;;;;8.51;96.20;99931.50;1808363;78;27067;-67
2022/10/22 05:59:10;;;;;;;38.00;21.82;;;;;;;8.53;96.16;99932.80;1818264;78;25334;-70
2022/10/22 06:01:39;;;;;;;43.73;24.02;;;;;;;8.56;96.30;99925.46;1802424;78;25336;-70
2022/10/22 06:04:11;;;;;;;44.63;23.40;;;;;;;8.57;96.24;99931.08;1782166;78;26252;-69
2022/10/22 06:06:46;;;;;;;39.70;22.75;;;;;;;8.59;96.30;99931.56;1792983;78;25431;-70
2022/10/22 06:09:27;;;;;;;43.55;24.02;;;;;;;8.64;96.42;99924.48;1802944;78;27194;-70
2022/10/22 06:11:57;;;;;;;44.05;23.80;;;;;;;8.64;96.35;99911.00;1800671;78;25628;-68
2022/10/22 06:14:26;;;;;;;39.08;22.60;;;;;;;8.68;96.47;99919.50;1799224;78;32406;-68
2022/10/22 06:16:54;;;;;;;45.05;23.60;;;;;;;8.70;96.60;99924.06;1815703;78;25677;-68
2022/10/22 06:19:25;;;;;;;41.20;22.62;;;;;;;8.73;96.47;99939.61;1793728;78;25481;-68
2022/10/22 06:21:52;;;;;;;45.75;23.10;;;;;;;8.74;96.50;99933.13;1799223;78;28097;-68
2022/10/22 06:24:21;;;;;;;46.50;23.90;;;;;;;8.78;96.73;99930.08;1809095;78;25105;-68
2022/10/22 06:26:52;;;;;;;42.10;22.98;;;;;;;8.79;96.64;99937.61;1792648;78;25698;-68
2022/10/22 06:29:19;;;;;;;43.23;24.60;;;;;;;8.81;96.66;99935.96;1824362;78;25633;-68
2022/10/22 06:31:47;;;;;;;41.83;25.50;;;;;;;8.83;96.63;99933.19;1825524;78;25520;-69
2022/10/22 06:34:17;;;;;;;49.90;25.50;;;;;;;8.84;96.61;99944.23;1805854;78;26730;-68
2022/10/22 06:39:35;;;;;;;47.53;32.98;;;;;;;8.88;96.92;99949.81;1670521;84;25577;-68
2022/10/22 06:42:03;;;;;;;42.50;25.12;;;;;;;8.88;96.64;99948.47;1693410;83;25852;-68
2022/10/22 06:44:34;;;;;;;39.85;22.50;;;;;;;8.89;96.63;99950.08;1694798;84;25525;-68
2022/10/22 06:47:06;;;;;;;42.78;27.55;;;;;;;8.90;96.59;99944.91;1692758;83;27936;-69
2022/10/22 06:49:35;;;;;;;40.48;23.95;;;;;;;8.92;96.71;99956.18;1689231;84;25489;-68
2022/10/22 06:52:08;;;;;;;43.17;24.18;;;;;;;8.92;96.86;99962.92;1688108;84;25599;-69
2022/10/22 06:54:36;;;;;;;69.67;62.55;;;;;;;8.94;96.79;99954.00;1693408;83;25725;-69
2022/10/22 06:57:05;;;;;;;91.57;83.47;;;;;;;8.93;96.64;99944.30;1691090;83;25760;-69
2022/10/22 06:59:32;;;;;;;55.83;47.88;;;;;;;8.95;96.70;99952.88;1700369;83;27207;-69
2022/10/22 07:04:49;;;;;;;46.18;37.67;;;;;;;8.98;97.09;99940.92;1710967;83;25100;-69
2022/10/22 07:07:17;;;;;;;52.33;42.53;;;;;;;9.03;96.97;99948.10;1711497;83;25659;-68
2022/10/22 07:09:48;;;;;;;68.33;61.53;;;;;;;9.06;97.14;99949.38;1717843;83;25432;-68
2022/10/22 07:12:18;;;;;;;39.73;23.18;;;;;;;9.10;97.26;99944.98;1716125;83;27325;-68
2022/10/22 07:14:45;;;;;;;42.85;27.27;;;;;;;9.12;97.16;99952.20;1723335;82;25814;-68
2022/10/22 07:17:12;;;;;;;45.90;26.23;;;;;;;9.13;97.14;99972.70;1728917;81;25589;-67
2022/10/22 07:19:39;;;;;;;44.67;24.43;;;;;;;9.14;97.09;99983.72;1779953;79;25688;-69
2022/10/22 07:22:07;;;;;;;44.08;29.48;;;;;;;9.17;97.13;99993.91;1774865;79;25443;-68
2022/10/22 07:24:34;;;;;;;43.70;27.27;;;;;;;9.17;96.98;99985.81;1762892;80;27230;-68
2022/10/22 07:27:01;;;;;;;35.33;22.48;;;;;;;9.19;97.09;99984.16;1759916;79;25320;-68
2022/10/22 07:29:29;;;;;;;38.33;23.62;;;;;;;9.20;97.14;99998.69;1769322;79;25428;-68
2022/10/22 07:31:56;;;;;;;41.70;22.55;;;;;;;9.20;97.06;99991.16;1774278;80;25719;-68
2022/10/22 07:34:24;;;;;;;39.58;23.50;;;;;;;9.21;97.15;99977.89;1770529;79;25497;-68
2022/10/22 07:36:56;;;;;;;42.17;23.65;;;;;;;9.24;97.17;99983.47;1775769;80;27208;-68
2022/10/22 07:39:24;;;;;;;39.23;22.77;;;;;;;9.24;97.31;99970.54;1771613;80;26022;-68
2022/10/22 07:41:52;;;;;;;38.85;22.77;;;;;;;9.27;97.44;99973.41;1771117;80;25470;-68
2022/10/22 07:44:20;;;;;;;44.98;23.10;;;;;;;9.29;97.39;99964.45;1771078;80;25711;-67
2022/10/22 07:46:48;;;;;;;42.43;23.27;;;;;;;9.32;97.39;99967.10;1774766;80;25485;-67
2022/10/22 07:49:15;;;;;;;38.30;23.40;;;;;;;9.38;97.51;99968.58;1772595;80;27255;-68
2022/10/22 07:51:43;;;;;;;45.00;25.30;;;;;;;9.39;97.10;99967.45;1770972;80;25348;-68
2022/10/22 07:54:10;;;;;;;40.38;23.25;;;;;;;9.42;97.34;99976.30;1771434;80;25503;-69
2022/10/22 07:56:37;;;;;;;45.28;23.98;;;;;;;9.46;97.35;99967.81;1770252;80;25589;-68
2022/10/22 07:59:04;;;;;;;43.08;23.70;;;;;;;9.50;97.45;99967.98;1773020;80;25614;-69
2022/10/22 08:01:31;;;;;;;41.92;24.92;;;;;;;9.55;97.42;99975.95;1755444;80;27290;-68
2022/10/22 08:03:58;;;;;;;45.05;25.35;;;;;;;9.58;97.23;99975.34;1769927;80;25637;-69
2022/10/22 08:06:26;;;;;;;40.00;22.65;;;;;;;9.60;97.31;99979.08;1769812;80;25445;-68
2022/10/22 08:08:53;;;;;;;41.53;22.65;;;;;;;9.62;97.15;99984.44;1763928;80;25595;-69
2022/10/22 08:11:20;;;;;;;39.00;22.85;;;;;;;9.63;97.13;99975.20;1766300;80;25505;-69
2022/10/22 08:13:47;;;;;;;42.53;22.42;;;;;;;9.66;97.18;99976.51;1768501;80;27170;-69
2022/10/22 08:16:15;;;;;;;39.85;22.22;;;;;;;9.67;97.23;99993.75;1774105;80;25569;-69
2022/10/22 08:18:42;;;;;;;37.88;22.48;;;;;;;9.67;97.00;99992.94;1753721;80;25332;-69
2022/10/22 08:21:15;;;;;;;40.95;24.77;;;;;;;9.65;97.03;99986.52;1766231;80;25749;-69
2022/10/22 08:23:43;;;;;;;42.58;24.10;;;;;;;9.66;97.17;99985.39;1770030;80;25522;-68
2022/10/22 08:26:11;;;;;;;44.63;22.95;;;;;;;9.70;97.50;99990.97;1757892;80;29346;-69
2022/10/22 08:28:38;;;;;;;36.45;21.42;;;;;;;9.71;97.52;100000.12;1761105;80;26080;-68
2022/10/22 08:31:07;;;;;;;40.80;22.98;;;;;;;9.73;97.41;99996.55;1768986;79;25336;-68
2022/10/22 08:33:35;;;;;;;38.05;22.60;;;;;;;9.76;97.47;99997.84;1772987;80;26318;-68
2022/10/22 08:36:03;;;;;;;45.60;23.95;;;;;;;9.80;97.71;99993.41;1775041;80;25549;-68
2022/10/22 08:38:31;;;;;;;40.40;23.77;;;;;;;9.82;97.76;99999.28;1750526;80;27196;-71
2022/10/22 08:41:13;;;;;;;42.53;24.77;;;;;;;9.87;98.02;100005.11;1757282;80;25639;-71
2022/10/22 08:44:23;;;;;;;43.68;24.70;;;;;;;9.88;97.81;99999.97;1772637;80;25586;-72
2022/10/22 08:47:36;;;;;;;35.33;22.75;;;;;;;9.89;97.82;100005.06;1760923;80;26353;-70
2022/10/22 08:50:07;;;;;;;41.25;23.55;;;;;;;9.93;97.96;99991.72;1717856;83;25728;-69
2022/10/22 08:52:36;;;;;;;42.73;24.43;;;;;;;9.95;97.81;99989.50;1717256;83;27213;-68
2022/10/22 08:55:05;;;;;;;37.70;23.65;;;;;;;9.97;97.79;99993.25;1718618;83;25609;-70
2022/10/22 08:57:43;;;;;;;43.35;25.62;;;;;;;9.96;97.47;99985.70;1715521;83;25766;-68
2022/10/22 09:00:30;;;;;;;44.67;31.25;;;;;;;9.97;97.56;99991.33;1719635;83;26160;-70
2022/10/22 09:03:18;;;;;;;43.50;25.55;;;;;;;9.99;97.82;99989.11;1701125;82;25587;-70
2022/10/22 09:06:17;;;;;;;55.80;50.03;;;;;;;10.03;97.98;99990.66;1715341;83;27268;-70
2022/10/22 09:08:47;;;;;;;63.60;57.30;;;;;;;10.04;97.84;99994.94;1721987;83;25435;-70
2022/10/22 09:11:38;;;;;;;75.17;68.37;;;;;;;10.10;98.47;99997.19;1718207;81;32487;-70
2022/10/22 09:14:11;;;;;;;103.30;94.62;;;;;;;10.13;98.23;100007.94;1707229;81;26254;-67
2022/10/22 09:17:34;;;;;;;41.15;30.40;;;;;;;10.15;98.15;99998.96;1717047;81;25652;-70
2022/10/22 09:20:22;;;;;;;100.95;92.60;;;;;;;10.19;98.14;100002.62;1712363;83;29352;-69
2022/10/22 09:22:53;;;;;;;75.32;67.97;;;;;;;10.23;98.20;100005.48;1721581;83;26306;-70
2022/10/22 09:25:28;;;;;;;91.70;83.15;;;;;;;10.24;98.29;100009.80;1719917;80;25607;-70
2022/10/22 09:27:58;;;;;;;90.05;81.87;;;;;;;10.27;98.17;100009.17;1744556;80;25686;-69
2022/10/22 09:30:31;;;;;;;41.20;23.77;;;;;;;10.29;98.30;100015.06;1767471;78;25511;-70
2022/10/22 09:33:07;;;;;;;46.00;24.30;;;;;;;10.32;98.07;100015.00;1737604;80;27812;-69
2022/10/22 09:35:52;;;;;;;42.23;23.92;;;;;;;10.33;98.08;100011.98;1737945;80;25585;-69
2022/10/22 09:38:29;;;;;;;42.35;23.62;;;;;;;10.34;97.94;100008.19;1749340;80;25608;-69
2022/10/22 09:41:02;;;;;;;45.92;24.65;;;;;;;10.38;97.96;100000.23;1769514;80;25618;-69
2022/10/22 09:43:31;;;;;;;39.92;23.27;;;;;;;10.44;98.44;99998.99;1766459;80;25613;-69
2022/10/22 09:46:03;;;;;;;37.60;22.73;;;;;;;10.50;98.81;99995.58;1771336;80;28051;-68
2022/10/22 09:48:38;;;;;;;43.45;23.40;;;;;;;10.55;98.82;99993.51;1759723;78;25535;-68
2022/10/22 09:51:19;;;;;;;38.48;23.73;;;;;;;10.61;99.38;99990.91;1734051;80;25668;-68
2022/10/22 09:53:56;;;;;;;41.48;22.95;;;;;;;10.68;99.10;99987.73;1745185;80;26511;-69
2022/10/22 09:56:38;;;;;;;38.65;22.13;;;;;;;10.77;99.70;99984.46;1741757;81;25985;-69
2022/10/22 09:59:09;;;;;;;41.50;23.07;;;;;;;10.81;98.62;99977.86;1742174;80;27259;-69
2022/10/22 10:01:37;;;;;;;45.10;23.98;;;;;;;10.85;98.52;99980.19;1740845;80;25557;-68
2022/10/22 10:04:09;;;;;;;43.83;23.67;;;;;;;10.90;98.47;99983.30;1728886;82;25652;-68
2022/10/22 10:06:40;;;;;;;39.55;22.07;;;;;;;10.93;98.43;99977.22;1698583;84;25721;-68
2022/10/22 10:09:26;;;;;;;38.63;23.07;;;;;;;10.98;98.77;99985.18;1699486;82;25608;-68
2022/10/22 10:12:07;;;;;;;42.65;23.20;;;;;;;11.03;98.67;99978.25;1700501;83;27138;-70
2022/10/22 10:14:58;;;;;;;43.83;22.70;;;;;;;11.09;98.37;99979.69;1696448;82;25548;-70
2022/10/22 10:18:17;;;;;;;37.53;22.50;;;;;;;11.11;97.91;99986.14;1698841;84;25694;-70
2022/10/22 10:20:59;;;;;;;43.55;23.85;;;;;;;11.11;97.90;99998.33;1684064;82;25731;-68
2022/10/22 10:23:38;;;;;;;45.95;23.02;;;;;;;11.10;97.61;99992.13;1695164;82;25719;-70
2022/10/22 10:26:33;;;;;;;44.57;23.87;;;;;;;11.08;97.46;99995.69;1687571;84;27197;-69
2022/10/22 10:29:28;;;;;;;52.78;24.67;;;;;;;11.09;97.72;99994.58;1730301;82;27267;-69
2022/10/22 10:32:04;;;;;;;45.12;23.22;;;;;;;11.08;97.45;99998.95;1710149;83;25743;-69
2022/10/22 10:34:49;;;;;;;44.98;24.12;;;;;;;11.04;97.45;100004.22;1743407;81;25632;-70
2022/10/22 10:37:30;;;;;;;53.78;25.15;;;;;;;11.04;97.69;100009.63;1745785;80;25598;-69
2022/10/22 10:40:17;;;;;;;39.80;22.50;;;;;;;11.08;98.02;100011.14;1736608;80;27348;-68
2022/10/22 10:43:11;;;;;;;43.25;23.55;;;;;;;11.09;97.92;100014.88;1737325;80;25364;-70
2022/10/22 10:46:31;;;;;;;43.83;22.50;;;;;;;11.11;98.03;100003.73;1737129;82;25580;-70
2022/10/22 10:49:02;;;;;;;41.80;23.70;;;;;;;11.11;97.99;100005.88;1738910;81;25672;-65
2022/10/22 10:51:47;;;;;;;38.02;22.77;;;;;;;11.11;97.67;100002.39;1746741;81;25612;-70
2022/10/22 10:54:51;;;;;;;48.83;25.85;;;;;;;11.10;97.70;100004.84;1685377;84;27234;-68
2022/10/22 10:57:56;;;;;;;40.92;23.00;;;;;;;11.08;97.43;100011.92;1691761;84;25647;-70
2022/10/22 11:00:23;;;;;;;43.73;24.10;;;;;;;11.05;97.56;100007.17;1683777;84;26222;-70
2022/10/22 11:03:31;;;;;;;48.50;25.10;;;;;;;11.05;97.69;100010.41;1629173;85;25869;-70
2022/10/22 11:06:12;;;;;;;59.95;52.73;;;;;;;11.07;97.89;100018.47;1694213;83;26217;-68
2022/10/22 11:08:48;;;;;;;48.90;26.68;;;;;;;11.06;97.72;100011.45;1693195;82;29670;-69
2022/10/22 11:11:24;;;;;;;52.50;32.70;;;;;;;11.08;98.01;100012.48;1694488;84;25358;-68
2022/10/22 11:14:03;;;;;;;57.08;41.15;;;;;;;11.06;97.93;100004.69;1676666;84;25521;-68
2022/10/22 11:16:53;;;;;;;51.73;33.70;;;;;;;11.08;98.04;100013.27;1689851;84;25834;-69
2022/10/22 11:19:28;;;;;;;51.73;32.85;;;;;;;11.10;98.14;100005.66;1690771;84;25581;-70
2022/10/22 11:22:04;;;;;;;51.85;35.80;;;;;;;11.13;98.31;99996.88;1690730;83;27410;-70
2022/10/22 11:25:15;;;;;;;49.10;31.97;;;;;;;11.14;98.04;99999.83;1693804;83;25531;-69
2022/10/22 11:27:51;;;;;;;60.40;53.60;;;;;;;11.15;98.06;99986.55;1668117;84;25608;-68
2022/10/22 11:30:23;;;;;;;52.17;36.93;;;;;;;11.18;98.19;99978.33;1710967;80;25617;-70
2022/10/22 11:32:58;;;;;;;52.15;28.85;;;;;;;11.19;98.14;99978.58;1741474;80;25587;-70
2022/10/22 11:35:49;;;;;;;53.10;26.55;;;;;;;11.20;97.95;99978.80;1762734;81;26899;-70
2022/10/22 11:38:38;;;;;;;53.63;26.23;;;;;;;11.18;97.84;99970.99;1698982;84;25688;-70
2022/10/22 11:41:26;;;;;;;57.55;28.92;;;;;;;11.21;98.10;99977.69;1694843;83;25619;-69
2022/10/22 11:44:20;;;;;;;53.95;26.40;;;;;;;11.22;98.15;99980.65;1695366;83;26150;-70
2022/10/22 11:47:11;;;;;;;44.42;25.70;;;;;;;11.25;98.30;99984.05;1695647;83;25639;-70
2022/10/22 11:50:21;;;;;;;52.17;26.77;;;;;;;11.27;98.20;99971.55;1697478;83;27274;-69
2022/10/22 11:53:02;;;;;;;49.50;25.70;;;;;;;11.30;98.25;99978.46;1698380;83;25709;-69
2022/10/22 11:55:46;;;;;;;51.37;26.33;;;;;;;11.31;98.09;99981.42;1691894;83;25760;-69
2022/10/22 11:58:45;;;;;;;46.92;24.18;;;;;;;11.33;98.21;99974.33;1695139;83;29046;-69